Terminal Aerodrome Forecast
Issued by NWS Northern Indiana

Home | Current Version | Previous Version | Text Only | Print | Product List | Glossary Off
Versions: 1 2 3 4 5 6 7 8 9 10 11 12 13

000
FTUS43 KIWX 181100
TAFFWA
TAF
KFWA 181124Z 1812/1912 VRB03KT P6SM BKN090
     FM181500 34010KT P6SM BKN045
     FM190100 03004KT P6SM SKC=

USA.gov is the U.S. government's official web portal to all federal, state and local government web resources and services.